sensor_id;sensor_type;location;lat;lon;timestamp;P1;P2;P0
55076;PMS7003;40971;44.702;11.030;2023-06-14T00:04:37;16.00;16.00;12.00
55076;PMS7003;40971;44.702;11.030;2023-06-14T00:14:40;19.40;18.60;11.40
55076;PMS7003;40971;44.702;11.030;2023-06-14T00:24:41;24.67;21.67;15.00
55076;PMS7003;40971;44.702;11.030;2023-06-14T00:34:42;25.00;24.00;15.50
55076;PMS7003;40971;44.702;11.030;2023-06-14T00:44:44;27.33;26.33;16.67
55076;PMS7003;40971;44.702;11.030;2023-06-14T00:54:46;28.00;26.33;17.67
55076;PMS7003;40971;44.702;11.030;2023-06-14T01:04:51;26.78;25.89;19.11
55076;PMS7003;40971;44.702;11.030;2023-06-14T01:14:54;26.50;24.50;15.50
55076;PMS7003;40971;44.702;11.030;2023-06-14T01:24:59;29.00;28.33;20.00
55076;PMS7003;40971;44.702;11.030;2023-06-14T01:35:02;28.00;27.67;20.00
55076;PMS7003;40971;44.702;11.030;2023-06-14T01:45:06;28.00;25.33;20.33
55076;PMS7003;40971;44.702;11.030;2023-06-14T01:55:09;33.00;33.00;21.67
55076;PMS7003;40971;44.702;11.030;2023-06-14T02:05:14;28.67;27.00;17.22
55076;PMS7003;40971;44.702;11.030;2023-06-14T02:15:21;32.67;32.67;20.00
55076;PMS7003;40971;44.702;11.030;2023-06-14T02:25:23;30.00;29.20;21.20
55076;PMS7003;40971;44.702;11.030;2023-06-14T02:35:25;30.00;29.00;18.67
55076;PMS7003;40971;44.702;11.030;2023-06-14T02:45:28;27.67;26.00;17.33
55076;PMS7003;40971;44.702;11.030;2023-06-14T02:55:33;31.44;28.78;18.56
55076;PMS7003;40971;44.702;11.030;2023-06-14T03:05:43;26.00;24.50;16.00
55076;PMS7003;40971;44.702;11.030;2023-06-14T03:15:50;20.00;19.67;15.00
55076;PMS7003;40971;44.702;11.030;2023-06-14T03:25:54;32.33;29.00;19.33
55076;PMS7003;40971;44.702;11.030;2023-06-14T03:35:56;33.33;30.67;21.33
55076;PMS7003;40971;44.702;11.030;2023-06-14T03:46:01;32.22;30.89;22.22
55076;PMS7003;40971;44.702;11.030;2023-06-14T03:56:03;30.67;27.67;21.67
55076;PMS7003;40971;44.702;11.030;2023-06-14T04:06:07;30.67;29.44;19.22
55076;PMS7003;40971;44.702;11.030;2023-06-14T04:16:10;28.33;26.00;17.67
55076;PMS7003;40971;44.702;11.030;2023-06-14T04:26:12;29.33;25.00;20.67
55076;PMS7003;40971;44.702;11.030;2023-06-14T04:36:15;31.67;31.00;21.00
55076;PMS7003;40971;44.702;11.030;2023-06-14T04:46:20;42.00;37.25;23.25
55076;PMS7003;40971;44.702;11.030;2023-06-14T04:56:23;38.33;36.00;25.67
55076;PMS7003;40971;44.702;11.030;2023-06-14T05:06:28;42.67;38.67;26.33
55076;PMS7003;40971;44.702;11.030;2023-06-14T05:16:30;48.67;41.33;28.00
55076;PMS7003;40971;44.702;11.030;2023-06-14T05:26:32;44.50;39.50;25.50
55076;PMS7003;40971;44.702;11.030;2023-06-14T05:36:35;39.67;36.00;23.67
55076;PMS7003;40971;44.702;11.030;2023-06-14T05:46:39;37.67;36.00;24.33
55076;PMS7003;40971;44.702;11.030;2023-06-14T05:56:44;32.89;29.22;20.67
55076;PMS7003;40971;44.702;11.030;2023-06-14T06:06:46;35.75;32.00;21.00
55076;PMS7003;40971;44.702;11.030;2023-06-14T06:16:50;37.00;34.75;23.50
55076;PMS7003;40971;44.702;11.030;2023-06-14T06:26:54;34.00;31.00;22.00
55076;PMS7003;40971;44.702;11.030;2023-06-14T06:36:57;34.25;32.50;21.00
55076;PMS7003;40971;44.702;11.030;2023-06-14T06:46:59;36.67;35.00;24.33
55076;PMS7003;40971;44.702;11.030;2023-06-14T06:57:01;33.00;33.00;22.50
55076;PMS7003;40971;44.702;11.030;2023-06-14T07:07:03;40.67;37.00;24.00
55076;PMS7003;40971;44.702;11.030;2023-06-14T07:17:05;41.00;37.50;23.75
55076;PMS7003;40971;44.702;11.030;2023-06-14T07:27:08;45.25;38.25;25.25
55076;PMS7003;40971;44.702;11.030;2023-06-14T07:37:11;39.75;36.25;24.50
55076;PMS7003;40971;44.702;11.030;2023-06-14T07:47:13;48.00;40.33;26.67
55076;PMS7003;40971;44.702;11.030;2023-06-14T07:57:17;52.63;43.88;27.75
55076;PMS7003;40971;44.702;11.030;2023-06-14T08:07:22;44.50;38.75;26.00
55076;PMS7003;40971;44.702;11.030;2023-06-14T08:17:24;49.33;42.00;27.33
55076;PMS7003;40971;44.702;11.030;2023-06-14T08:27:28;49.75;41.50;27.00
55076;PMS7003;40971;44.702;11.030;2023-06-14T08:37:31;48.00;41.00;27.50
55076;PMS7003;40971;44.702;11.030;2023-06-14T08:47:35;50.75;42.25;28.00
55076;PMS7003;40971;44.702;11.030;2023-06-14T08:57:38;49.00;40.75;28.25
55076;PMS7003;40971;44.702;11.030;2023-06-14T09:07:40;45.50;37.00;25.00
55076;PMS7003;40971;44.702;11.030;2023-06-14T09:17:42;43.00;38.00;27.00
55076;PMS7003;40971;44.702;11.030;2023-06-14T09:27:45;39.80;36.00;24.60
55076;PMS7003;40971;44.702;11.030;2023-06-14T09:37:49;38.00;34.67;24.00
55076;PMS7003;40971;44.702;11.030;2023-06-14T09:47:53;36.57;34.00;23.57
55076;PMS7003;40971;44.702;11.030;2023-06-14T09:57:56;29.67;28.33;21.83
55076;PMS7003;40971;44.702;11.030;2023-06-14T10:08:07;27.25;27.25;19.75
55076;PMS7003;40971;44.702;11.030;2023-06-14T10:28:36;29.50;28.50;21.00
55076;PMS7003;40971;44.702;11.030;2023-06-14T10:38:39;20.00;20.00;15.00
55076;PMS7003;40971;44.702;11.030;2023-06-14T10:48:44;13.00;13.00;10.67
55076;PMS7003;40971;44.702;11.030;2023-06-14T10:58:47;13.60;12.60;9.00
55076;PMS7003;40971;44.702;11.030;2023-06-14T11:09:51;9.00;9.00;8.00
55076;PMS7003;40971;44.702;11.030;2023-06-14T11:19:40;11.67;11.67;9.00
55076;PMS7003;40971;44.702;11.030;2023-06-14T11:29:48;12.33;12.33;9.00
55076;PMS7003;40971;44.702;11.030;2023-06-14T11:39:51;12.00;11.00;9.33
55076;PMS7003;40971;44.702;11.030;2023-06-14T11:49:52;11.80;11.80;9.40
55076;PMS7003;40971;44.702;11.030;2023-06-14T11:59:54;10.00;10.00;9.50
55076;PMS7003;40971;44.702;11.030;2023-06-14T12:20:11;12.00;12.00;9.80
55076;PMS7003;40971;44.702;11.030;2023-06-14T12:30:16;9.00;8.00;7.00
55076;PMS7003;40971;44.702;11.030;2023-06-14T12:40:20;10.00;10.00;8.00
55076;PMS7003;40971;44.702;11.030;2023-06-14T12:50:22;12.67;12.67;10.67
55076;PMS7003;40971;44.702;11.030;2023-06-14T13:00:24;11.00;9.00;7.33
55076;PMS7003;40971;44.702;11.030;2023-06-14T13:10:27;11.67;11.67;9.00
55076;PMS7003;40971;44.702;11.030;2023-06-14T13:20:29;14.33;14.33;11.67
55076;PMS7003;40971;44.702;11.030;2023-06-14T13:30:31;14.00;13.00;10.00
55076;PMS7003;40971;44.702;11.030;2023-06-14T13:40:32;13.00;13.00;11.00
55076;PMS7003;40971;44.702;11.030;2023-06-14T13:50:33;11.00;11.00;10.00
55076;PMS7003;40971;44.702;11.030;2023-06-14T14:00:35;11.00;11.00;9.00
55076;PMS7003;40971;44.702;11.030;2023-06-14T14:10:41;10.33;10.33;9.33
55076;PMS7003;40971;44.702;11.030;2023-06-14T14:20:42;13.00;13.00;10.67
55076;PMS7003;40971;44.702;11.030;2023-06-14T14:30:44;14.50;14.00;11.50
55076;PMS7003;40971;44.702;11.030;2023-06-14T14:40:48;20.00;20.00;15.00
55076;PMS7003;40971;44.702;11.030;2023-06-14T14:50:50;17.33;17.00;13.00
55076;PMS7003;40971;44.702;11.030;2023-06-14T15:00:52;17.00;17.00;14.00
55076;PMS7003;40971;44.702;11.030;2023-06-14T15:10:53;19.00;16.50;13.50
55076;PMS7003;40971;44.702;11.030;2023-06-14T15:20:55;17.67;16.67;13.00
55076;PMS7003;40971;44.702;11.030;2023-06-14T15:30:58;15.29;15.29;12.86
55076;PMS7003;40971;44.702;11.030;2023-06-14T15:41:02;19.67;19.33;14.67
55076;PMS7003;40971;44.702;11.030;2023-06-14T15:51:05;18.67;16.67;14.00
55076;PMS7003;40971;44.702;11.030;2023-06-14T16:01:08;19.00;18.00;14.33
55076;PMS7003;40971;44.702;11.030;2023-06-14T16:11:10;16.00;16.00;12.00
55076;PMS7003;40971;44.702;11.030;2023-06-14T16:21:14;17.25;17.25;13.38
55076;PMS7003;40971;44.702;11.030;2023-06-14T16:31:17;14.33;12.67;11.33
55076;PMS7003;40971;44.702;11.030;2023-06-14T16:41:21;18.33;15.67;11.67
55076;PMS7003;40971;44.702;11.030;2023-06-14T16:51:22;15.00;15.00;11.00
55076;PMS7003;40971;44.702;11.030;2023-06-14T17:01:24;15.50;14.50;12.00
55076;PMS7003;40971;44.702;11.030;2023-06-14T17:11:27;15.00;15.00;12.67
55076;PMS7003;40971;44.702;11.030;2023-06-14T17:21:28;10.00;10.00;9.00
55076;PMS7003;40971;44.702;11.030;2023-06-14T17:31:30;10.67;10.33;8.00
55076;PMS7003;40971;44.702;11.030;2023-06-14T17:41:31;9.67;9.67;7.00
55076;PMS7003;40971;44.702;11.030;2023-06-14T17:51:33;11.33;11.33;8.00
55076;PMS7003;40971;44.702;11.030;2023-06-14T18:01:35;9.40;9.40;8.00
55076;PMS7003;40971;44.702;11.030;2023-06-14T18:11:38;8.83;8.83;7.17
55076;PMS7003;40971;44.702;11.030;2023-06-14T18:21:39;9.00;9.00;7.00
55076;PMS7003;40971;44.702;11.030;2023-06-14T18:31:41;9.00;8.00;7.50
55076;PMS7003;40971;44.702;11.030;2023-06-14T18:41:43;9.67;9.67;7.00
55076;PMS7003;40971;44.702;11.030;2023-06-14T18:51:45;11.33;11.33;8.00
55076;PMS7003;40971;44.702;11.030;2023-06-14T19:01:47;11.00;11.00;9.67
55076;PMS7003;40971;44.702;11.030;2023-06-14T19:11:50;13.17;12.17;9.83
55076;PMS7003;40971;44.702;11.030;2023-06-14T19:21:53;14.33;14.00;12.00
55076;PMS7003;40971;44.702;11.030;2023-06-14T19:31:56;13.00;13.00;11.00
55076;PMS7003;40971;44.702;11.030;2023-06-14T19:41:57;12.00;12.00;9.67
55076;PMS7003;40971;44.702;11.030;2023-06-14T19:51:59;11.00;11.00;8.67
55076;PMS7003;40971;44.702;11.030;2023-06-14T20:02:01;12.00;12.00;10.67
55076;PMS7003;40971;44.702;11.030;2023-06-14T20:12:02;12.00;12.00;10.00
55076;PMS7003;40971;44.702;11.030;2023-06-14T20:22:04;14.67;13.00;10.00
55076;PMS7003;40971;44.702;11.030;2023-06-14T20:32:07;17.00;17.00;12.67
55076;PMS7003;40971;44.702;11.030;2023-06-14T20:42:09;16.00;16.00;12.20
55076;PMS7003;40971;44.702;11.030;2023-06-14T20:52:13;13.40;13.40;11.00
55076;PMS7003;40971;44.702;11.030;2023-06-14T21:02:15;19.00;18.00;15.00
55076;PMS7003;40971;44.702;11.030;2023-06-14T21:23:22;21.00;18.00;15.00
55076;PMS7003;40971;44.702;11.030;2023-06-14T21:54:58;17.00;16.00;12.33
55076;PMS7003;40971;44.702;11.030;2023-06-14T22:05:01;19.40;19.40;13.80
55076;PMS7003;40971;44.702;11.030;2023-06-14T22:15:08;18.38;16.38;12.75
55076;PMS7003;40971;44.702;11.030;2023-06-14T22:25:10;18.60;18.60;13.60
55076;PMS7003;40971;44.702;11.030;2023-06-14T22:35:11;19.00;17.67;13.00
55076;PMS7003;40971;44.702;11.030;2023-06-14T22:45:13;17.00;15.67;13.67
55076;PMS7003;40971;44.702;11.030;2023-06-14T22:55:23;14.20;13.80;12.00
55076;PMS7003;40971;44.702;11.030;2023-06-14T23:05:27;14.33;14.33;12.67
55076;PMS7003;40971;44.702;11.030;2023-06-14T23:15:31;20.63;19.13;13.38
55076;PMS7003;40971;44.702;11.030;2023-06-14T23:25:34;20.80;20.00;13.40
55076;PMS7003;40971;44.702;11.030;2023-06-14T23:35:38;19.88;19.88;15.38
55076;PMS7003;40971;44.702;11.030;2023-06-14T23:45:43;29.33;27.67;17.33
55076;PMS7003;40971;44.702;11.030;2023-06-14T23:55:47;23.33;22.33;17.00
